Portada
METAR-TAF:

METAR-TAF

Aeroports :

Gibraltar, Gibraltar

latitud: 36-09N, longitud: 005-21W, altitud: 5 m

Observació

L'informe es va fer fa 59 minuts, a les 21:50 UTC
Vent 11 kt del Sud-Oest
Temperatura 15°C
Humitat 88%
Pressió 1007 hPa
Visibilitat 10 km o més

METAR: LXGB 192150Z AUTO 22011KT 9999 // FEW036/// BKN041/// 15/13 Q1007

Hora: 23:49 (22:49 UTC)

Pronòstic

L'informe es va fer fa 9 hores i 2 minuts, a les 13:47 UTC
Pronòstic vàlid del 19 a les 15 UTC al 19 a les 23 UTC
Vent 8 kt del Oest/Sud-Oest
Visibilitat 10 km o més
Escasses núvols a una alçada de 2000 ft
Núvols disperses a una alçada de 3500 ft
Temporalment
l' 19 a les 15 UTC al 19 a les 16 UTC
Vent 11 kt del Sud-Oest
Evolucionant progressivament
l' 19 a les 20 UTC al 19 a les 23 UTC
Vent 10 kt del Sud/Sud-Oest

TAF: LXGB 191347Z 1915/1923 25008KT 9999 FEW020 SCT035 TEMPO 1915/1916 23011KT 520002 BECMG 1920/1923 21010KT 520002

Observacions i pronòstics meteorològics de més de 4000 aeroports (METAR i TAF).

Les estacions disponibles són els punts grocs i vermells al mapa.

Posi el ratolí al punt desitjat per veure el nom de l'estació.

Feu clic per veure les observacions i els pronòstics meteorològics.

Per canviar el mapa: feu clic els botons verds amb una creu de color negre per apropar; al botó verd amb un guió per allunyar la imatge; o en les fletxes verdes per a mapes adjacents.


METAR-TAF: